Terminal Aerodrome Forecast
Issued by NWS

Current Version | Previous Version | Text Only | Print | Product List | Glossary On
Versions: 1 2 3 4 5 6 7 8 9 10 11 12
143
FTUS44 KTSA 252320
TAFXNA
TAF
KXNA 252320Z 2600/2624 18009KT P6SM SKC
     FM260200 17004KT P6SM SKC
     FM261500 21011KT P6SM FEW040=

USA.gov is the U.S. government's official web portal to all federal, state and local government web resources and services.